Time;durP1;ratioP1;P1;durP2;ratioP2;P2;SDS_P1;SDS_P2;PMS_P1;PMS_P2;Temp;Humidity;BMP_temperature;BMP_pressure;BME280_temperature;BME280_humidity;BME280_pressure;Samples;Min_cycle;Max_cycle;Signal;HPM_P1;HPM_P2
2023/10/25 00:03:15;;;;;;;2.90;1.50;;;;;;;-0.61;91.67;101421.16;10207082;29;20047;-65
2023/10/25 00:08:17;;;;;;;2.90;1.50;;;;;;;-0.54;92.09;101418.53;10305983;23;20073;-87
2023/10/25 00:13:19;;;;;;;2.25;1.50;;;;;;;-0.48;91.43;101422.34;10296681;28;20039;-87
2023/10/25 00:18:24;;;;;;;2.95;1.55;;;;;;;-0.42;90.65;101410.78;10338107;23;20030;-64
2023/10/25 00:23:34;;;;;;;3.75;1.55;;;;;;;-0.35;89.65;101407.16;10243476;23;20055;-63
2023/10/25 00:28:37;;;;;;;2.47;1.25;;;;;;;-0.26;89.54;101407.03;10279347;28;20035;-63
2023/10/25 00:33:39;;;;;;;1.90;1.17;;;;;;;-0.18;88.62;101401.50;10277085;29;20052;-63
2023/10/25 00:38:41;;;;;;;2.42;1.30;;;;;;;-0.17;87.90;101395.09;10265054;23;20519;-62
2023/10/25 00:43:43;;;;;;;2.70;1.52;;;;;;;-0.14;87.03;101392.84;10279742;28;20058;-61
2023/10/25 00:48:52;;;;;;;2.03;1.23;;;;;;;-0.26;86.60;101389.00;10265194;28;20133;-63
2023/10/25 00:53:56;;;;;;;2.53;1.33;;;;;;;-0.24;87.17;101388.78;10265313;23;20055;-63
2023/10/25 00:58:59;;;;;;;2.55;1.73;;;;;;;-0.24;87.36;101395.03;10261031;28;20557;-63
2023/10/25 01:04:01;;;;;;;2.72;1.77;;;;;;;-0.42;87.75;101389.22;10275931;29;20039;-64
2023/10/25 01:09:03;;;;;;;2.67;1.65;;;;;;;-0.42;88.73;101394.63;10320063;23;20394;-64
2023/10/25 01:14:06;;;;;;;2.80;1.48;;;;;;;-0.53;89.35;101404.03;10317079;28;20047;-64
2023/10/25 01:19:08;;;;;;;4.03;1.95;;;;;;;-0.53;89.45;101398.63;10320621;28;20516;-64
2023/10/25 01:24:11;;;;;;;2.20;1.40;;;;;;;-0.66;90.31;101403.88;10322220;28;20054;-64
2023/10/25 01:29:13;;;;;;;2.30;1.70;;;;;;;-0.63;91.12;101400.81;10310624;28;20043;-64
2023/10/25 01:34:18;;;;;;;3.53;1.33;;;;;;;-0.54;90.91;101405.06;10293443;28;20414;-64
2023/10/25 01:39:20;;;;;;;1.23;0.93;;;;;;;-0.52;90.84;101410.25;10300218;23;20099;-67
2023/10/25 01:44:22;;;;;;;6.07;1.25;;;;;;;-0.48;91.11;101417.78;10305624;28;20086;-67
2023/10/25 01:49:25;;;;;;;2.67;1.35;;;;;;;-0.57;91.69;101418.91;10293372;28;20043;-67
2023/10/25 01:54:27;;;;;;;1.85;1.10;;;;;;;-0.52;92.08;101418.34;10276885;23;20055;-86
2023/10/25 01:59:29;;;;;;;2.17;1.00;;;;;;;-0.55;92.59;101416.03;10232382;29;20046;-87
2023/10/25 02:04:31;;;;;;;1.90;0.82;;;;;;;-0.45;92.95;101424.66;10247313;28;20047;-87
2023/10/25 02:09:33;;;;;;;2.20;0.98;;;;;;;-0.34;92.87;101421.47;10264182;29;20043;-87
2023/10/25 02:14:36;;;;;;;2.10;1.08;;;;;;;-0.47;93.29;101424.03;10241861;29;20039;-87
2023/10/25 02:19:39;;;;;;;2.78;0.93;;;;;;;-0.44;93.20;101421.78;10279249;29;20059;-87
2023/10/25 02:24:42;;;;;;;4.00;1.15;;;;;;;-0.40;94.44;101424.91;10246373;29;20050;-87
2023/10/25 02:29:44;;;;;;;1.48;0.90;;;;;;;-0.41;94.78;101421.38;10281191;29;20398;-87
2023/10/25 02:34:46;;;;;;;1.70;0.90;;;;;;;-0.38;94.52;101426.41;10249850;29;20035;-88
2023/10/25 02:39:50;;;;;;;1.08;0.90;;;;;;;-0.45;94.98;101428.19;10203430;29;20133;-87
2023/10/25 02:44:52;;;;;;;1.63;0.80;;;;;;;-0.43;95.33;101420.75;10224489;29;20039;-88
2023/10/25 02:49:55;;;;;;;2.38;0.90;;;;;;;-0.40;94.37;101424.91;10209382;29;20043;-87
2023/10/25 02:54:58;;;;;;;1.15;0.90;;;;;;;-0.38;94.55;101426.41;10204895;29;20047;-86
2023/10/25 03:00:01;;;;;;;1.00;0.60;;;;;;;-0.45;95.19;101435.44;10250301;29;20036;-87
2023/10/25 03:05:05;;;;;;;1.90;0.90;;;;;;;-0.43;95.62;101428.00;10259252;29;20420;-86
2023/10/25 03:10:08;;;;;;;2.70;1.10;;;;;;;-0.40;95.25;101433.84;10226445;29;20058;-86
2023/10/25 03:15:10;;;;;;;1.02;0.90;;;;;;;-0.38;94.95;101430.94;10225656;29;20043;-86
2023/10/25 03:20:16;;;;;;;1.35;0.60;;;;;;;-0.41;94.94;101429.47;10250182;29;20197;-87
2023/10/25 03:25:18;;;;;;;1.50;0.63;;;;;;;-0.40;94.88;101438.41;10232324;29;20036;-86
2023/10/25 03:30:21;;;;;;;2.00;0.90;;;;;;;-0.49;96.17;101445.78;10223314;29;20040;-86
2023/10/25 03:35:27;;;;;;;2.88;1.17;;;;;;;-0.50;96.87;101446.81;10222776;29;20043;-86
2023/10/25 03:40:29;;;;;;;0.90;0.73;;;;;;;-0.56;97.14;101446.69;10206705;29;20356;-87
2023/10/25 03:45:31;;;;;;;1.35;0.70;;;;;;;-0.54;96.73;101437.41;10191609;29;20036;-86
2023/10/25 03:50:36;;;;;;;2.33;0.88;;;;;;;-0.47;96.25;101443.72;10192062;29;20048;-87
2023/10/25 03:55:40;;;;;;;1.27;0.52;;;;;;;-0.47;95.76;101427.56;10220787;29;20054;-87
2023/10/25 04:00:45;;;;;;;1.00;0.70;;;;;;;-0.39;95.33;101434.69;10210977;29;20498;-86
2023/10/25 04:05:48;;;;;;;0.77;0.70;;;;;;;-0.47;95.92;101432.94;10219740;29;20406;-87
2023/10/25 04:10:55;;;;;;;0.55;0.52;;;;;;;-0.45;95.74;101419.28;10238187;29;20490;-86
2023/10/25 04:16:02;;;;;;;2.15;1.00;;;;;;;-0.50;95.39;101438.72;10171695;29;20051;-86
2023/10/25 04:21:08;;;;;;;;;;;;;;;-0.47;94.56;101432.94;10216504;29;20406;-88
2023/10/25 04:26:14;;;;;;;2.45;1.23;;;;;;;-0.44;94.19;101448.72;10224617;29;20042;-88
2023/10/25 04:31:20;;;;;;;2.10;1.00;;;;;;;-0.45;93.83;101449.75;10226584;29;20043;-88
2023/10/25 04:36:26;;;;;;;4.07;1.05;;;;;;;-0.47;93.51;101438.34;10214157;29;20043;-88
2023/10/25 04:41:30;;;;;;;8.65;1.00;;;;;;;-0.43;93.73;101455.78;10228949;29;20059;-87
2023/10/25 04:46:33;;;;;;;5.40;1.55;;;;;;;-0.48;94.13;101460.09;10217998;29;20048;-88
2023/10/25 04:51:35;;;;;;;2.67;1.08;;;;;;;-0.46;93.89;101464.25;10226075;29;20059;-88
2023/10/25 04:56:38;;;;;;;3.00;1.20;;;;;;;-0.45;94.30;101467.78;10210363;29;20043;-88
2023/10/25 05:01:40;;;;;;;5.22;1.30;;;;;;;-0.40;94.10;101470.75;10225661;29;20047;-88
2023/10/25 05:07:00;;;;;;;5.07;1.30;;;;;;;-0.36;94.73;101472.88;10229237;29;20048;-90
2023/10/25 05:12:07;;;;;;;9.63;1.63;;;;;;;-0.37;94.63;101478.47;10242668;29;20538;-89
2023/10/25 05:18:48;;;;;;;3.83;1.50;;;;;;;-0.41;94.40;101475.31;10199609;29;20479;-88
2023/10/25 05:24:56;;;;;;;4.10;1.50;;;;;;;-0.36;94.63;101474.75;10241442;29;20134;-88
2023/10/25 05:30:21;;;;;;;6.50;1.58;;;;;;;-0.44;94.05;101477.56;10195954;29;20058;-89
2023/10/25 05:35:24;;;;;;;3.92;1.30;;;;;;;-0.39;93.92;101475.97;10212348;29;20038;-88
2023/10/25 05:40:27;;;;;;;2.33;1.10;;;;;;;-0.34;93.80;101475.41;10226280;29;20040;-87
2023/10/25 05:45:29;;;;;;;2.28;1.35;;;;;;;-0.33;92.61;101483.31;10230803;29;20055;-87
2023/10/25 05:50:32;;;;;;;3.85;1.45;;;;;;;-0.31;91.86;101483.97;10226873;29;20047;-86
2023/10/25 05:55:34;;;;;;;8.93;2.03;;;;;;;-0.20;90.88;101490.69;10226684;29;20048;-87
2023/10/25 06:00:37;;;;;;;5.32;2.13;;;;;;;-0.25;89.65;101485.06;10212089;29;20043;-88
2023/10/25 06:05:40;;;;;;;9.23;2.20;;;;;;;0.06;89.53;101497.44;10242149;29;20047;-87
2023/10/25 06:10:43;;;;;;;11.70;2.45;;;;;;;0.01;87.51;101492.63;10244065;29;20082;-87
2023/10/25 06:15:45;;;;;;;6.63;2.03;;;;;;;0.23;86.83;101488.91;10219123;29;20048;-87
2023/10/25 06:20:48;;;;;;;2.15;1.38;;;;;;;0.86;83.55;101495.25;10224355;29;20046;-88
2023/10/25 06:25:50;;;;;;;5.28;1.70;;;;;;;0.47;82.42;101503.88;10226428;29;20067;-88
2023/10/25 06:30:52;;;;;;;1.73;1.13;;;;;;;0.22;83.15;101499.91;10226263;29;20040;-88
2023/10/25 06:36:01;;;;;;;5.03;1.40;;;;;;;0.15;84.06;101505.19;10212270;29;20144;-87
2023/10/25 06:41:05;;;;;;;2.15;1.00;;;;;;;0.13;83.65;101504.56;10225363;29;20417;-88
2023/10/25 06:46:10;;;;;;;3.08;1.17;;;;;;;0.17;83.13;101508.53;10227214;29;20066;-87
2023/10/25 06:51:16;;;;;;;1.70;1.23;;;;;;;0.32;83.55;101507.66;10222691;29;20055;-88
2023/10/25 06:56:19;;;;;;;4.20;1.50;;;;;;;2.55;78.83;101496.38;10224408;29;20442;-87
2023/10/25 07:01:24;;;;;;;1.85;1.20;;;;;;;5.35;69.33;101488.28;10209358;29;20406;-89
2023/10/25 07:06:27;;;;;;;1.95;1.15;;;;;;;5.62;62.10;101491.56;10222739;29;20036;-85
2023/10/25 07:11:29;;;;;;;1.67;1.27;;;;;;;6.21;60.88;101497.31;10224821;29;20414;-86
2023/10/25 07:16:32;;;;;;;4.75;1.80;;;;;;;4.18;64.87;101500.78;10223979;29;20059;-87
2023/10/25 07:21:35;;;;;;;4.30;1.70;;;;;;;2.58;69.79;101514.91;10208101;29;20050;-86
2023/10/25 07:26:37;;;;;;;2.58;1.65;;;;;;;2.17;72.10;101512.38;10224631;29;20410;-86
2023/10/25 07:31:40;;;;;;;2.75;1.92;;;;;;;1.74;74.19;101525.34;10240181;29;20516;-86
2023/10/25 07:36:44;;;;;;;2.20;1.75;;;;;;;1.35;76.04;101515.97;10223651;29;20055;-86
2023/10/25 07:41:46;;;;;;;3.53;2.40;;;;;;;1.52;76.42;101519.19;10206168;29;20043;-87
2023/10/25 07:46:48;;;;;;;3.63;2.33;;;;;;;1.44;76.52;101524.75;10221337;29;20499;-86
2023/10/25 07:51:54;;;;;;;3.88;2.13;;;;;;;1.48;76.73;101520.63;10238823;29;20052;-87
2023/10/25 07:56:56;;;;;;;4.47;2.50;;;;;;;1.54;76.55;101527.09;10232063;29;20044;-86
2023/10/25 08:02:00;;;;;;;4.45;2.15;;;;;;;1.39;77.81;101527.22;10219782;29;20525;-86
2023/10/25 08:07:02;;;;;;;4.15;2.65;;;;;;;1.50;77.77;101524.78;10245330;29;20525;-85
2023/10/25 08:12:06;;;;;;;3.28;2.38;;;;;;;1.51;77.30;101523.75;10231347;29;20044;-84
2023/10/25 08:17:09;;;;;;;5.35;2.15;;;;;;;1.51;76.06;101514.81;10242872;29;20497;-85
2023/10/25 08:22:11;;;;;;;5.70;2.85;;;;;;;1.32;76.58;101527.19;10244717;29;20059;-87
2023/10/25 08:27:17;;;;;;;3.50;2.13;;;;;;;1.67;75.77;101521.75;10217111;29;20059;-90
2023/10/25 08:32:21;;;;;;;7.55;2.63;;;;;;;1.65;74.53;101521.97;10219338;29;20067;-93
2023/10/25 08:37:23;;;;;;;3.95;2.30;;;;;;;1.76;75.26;101523.28;10189142;29;20425;-89
2023/10/25 08:42:26;;;;;;;4.10;2.15;;;;;;;1.60;74.57;101524.44;10221989;29;20047;-87
2023/10/25 08:47:29;;;;;;;5.53;2.55;;;;;;;1.38;75.04;101525.53;10190826;29;20081;-87
2023/10/25 08:52:31;;;;;;;7.25;2.10;;;;;;;1.15;75.70;101531.22;10175250;29;20048;-87
2023/10/25 08:57:36;;;;;;;2.50;1.83;;;;;;;0.85;76.23;101528.72;10212068;29;20051;-87
2023/10/25 09:02:39;;;;;;;2.67;1.63;;;;;;;0.62;76.99;101541.59;10197200;29;20042;-87
2023/10/25 09:07:41;;;;;;;2.72;1.70;;;;;;;0.62;76.68;101538.06;10247461;29;20046;-87
2023/10/25 09:12:44;;;;;;;4.28;1.90;;;;;;;0.85;77.18;101527.88;10226635;29;20044;-87
2023/10/25 09:17:47;;;;;;;5.45;2.38;;;;;;;1.07;76.70;101525.97;10229249;29;20061;-86
2023/10/25 09:22:49;;;;;;;6.15;2.78;;;;;;;1.14;76.52;101524.16;10228814;29;20044;-86
2023/10/25 09:35:21;;;;;;;5.82;2.20;;;;;;;1.01;77.61;101516.78;10209143;29;20051;-87
2023/10/25 09:40:43;;;;;;;6.85;2.67;;;;;;;0.89;77.33;101519.19;10230517;29;20142;-88
2023/10/25 09:45:55;;;;;;;4.05;1.92;;;;;;;0.70;78.56;101516.34;10243257;29;20067;-87
2023/10/25 09:51:15;;;;;;;4.93;2.10;;;;;;;0.75;78.65;101514.72;10190225;29;20540;-87
2023/10/25 09:56:18;;;;;;;6.50;2.13;;;;;;;0.56;79.09;101515.38;10242567;29;20076;-87
2023/10/25 10:01:20;;;;;;;2.22;1.55;;;;;;;0.53;79.78;101515.78;10189573;29;20412;-87
2023/10/25 10:06:50;;;;;;;4.00;1.88;;;;;;;0.58;79.31;101510.63;10186252;29;20040;-87
2023/10/25 10:12:19;;;;;;;3.15;1.73;;;;;;;0.63;79.92;101508.16;10190849;29;20043;-87
2023/10/25 10:17:21;;;;;;;3.10;1.50;;;;;;;0.54;79.64;101512.88;10201059;29;20052;-87
2023/10/25 10:22:23;;;;;;;1.13;1.00;;;;;;;0.58;79.92;101510.63;10202549;29;20044;-87
2023/10/25 10:27:52;;;;;;;1.83;1.27;;;;;;;0.80;79.21;101514.13;10202367;29;20525;-87
2023/10/25 10:32:57;;;;;;;2.00;1.13;;;;;;;1.05;79.07;101490.22;10174128;29;20047;-87
2023/10/25 10:38:00;;;;;;;2.80;1.63;;;;;;;1.02;78.66;101487.88;10256354;29;20052;-87
2023/10/25 10:43:06;;;;;;;2.28;1.40;;;;;;;0.97;79.06;101484.94;10226330;29;20437;-87
2023/10/25 10:48:20;;;;;;;2.47;1.60;;;;;;;1.04;79.17;101492.09;10225384;29;20044;-87
2023/10/25 10:53:23;;;;;;;2.10;1.48;;;;;;;1.03;78.94;101479.56;10195286;29;20056;-88
2023/10/25 10:58:27;;;;;;;4.93;2.13;;;;;;;0.97;79.27;101484.94;10195536;29;20140;-88
2023/10/25 11:03:29;;;;;;;3.35;1.60;;;;;;;1.06;79.45;101484.59;10221373;29;20047;-88
2023/10/25 11:08:32;;;;;;;3.88;1.67;;;;;;;1.36;78.84;101478.94;10213378;29;20043;-87
2023/10/25 11:13:34;;;;;;;3.08;1.67;;;;;;;1.37;77.93;101467.91;10235768;29;20134;-87
2023/10/25 11:18:37;;;;;;;4.00;1.95;;;;;;;1.25;78.06;101466.00;10229619;29;20051;-87
2023/10/25 11:23:40;;;;;;;3.47;1.80;;;;;;;1.05;79.09;101463.19;10237176;29;20046;-87
2023/10/25 11:28:43;;;;;;;2.20;1.45;;;;;;;0.76;81.37;101466.94;10216909;29;20050;-86
2023/10/25 11:33:45;;;;;;;2.65;1.60;;;;;;;0.69;82.94;101464.16;10268337;29;20130;-85
2023/10/25 11:38:48;;;;;;;2.55;1.60;;;;;;;0.70;83.48;101460.44;10217401;29;20047;-86
2023/10/25 11:43:50;;;;;;;3.15;1.70;;;;;;;0.67;83.94;101455.41;10235838;29;20046;-85
2023/10/25 11:48:58;;;;;;;3.13;1.95;;;;;;;0.70;84.09;101446.94;10219659;29;20048;-86
2023/10/25 11:54:02;;;;;;;2.40;1.63;;;;;;;0.84;84.02;101448.69;10208100;29;20052;-86
2023/10/25 11:59:08;;;;;;;3.20;2.17;;;;;;;0.72;84.30;101434.06;10232063;29;20422;-86
2023/10/25 12:04:11;;;;;;;2.60;2.08;;;;;;;0.64;85.33;101430.69;10236878;29;20550;-86
2023/10/25 12:09:14;;;;;;;2.42;1.20;;;;;;;0.63;85.55;101427.13;10255650;29;20043;-87
2023/10/25 12:14:17;;;;;;;2.53;1.35;;;;;;;0.50;85.33;101441.38;10262017;29;20047;-87
2023/10/25 12:19:20;;;;;;;2.28;1.40;;;;;;;0.48;86.03;101429.94;10256977;29;20520;-86
2023/10/25 12:24:27;;;;;;;2.75;1.48;;;;;;;0.52;86.18;101442.03;10228120;29;20043;-88
2023/10/25 12:29:29;;;;;;;1.83;1.58;;;;;;;0.57;86.36;101428.78;10187609;29;20050;-88
2023/10/25 12:34:32;;;;;;;2.05;1.35;;;;;;;0.51;87.08;101431.41;10246979;29;20039;-89
2023/10/25 12:39:35;;;;;;;1.20;1.10;;;;;;;0.34;88.35;101430.00;10199007;29;20039;-86
2023/10/25 12:44:37;;;;;;;2.33;1.55;;;;;;;0.20;89.60;101419.13;10234549;29;20043;-90
2023/10/25 12:49:39;;;;;;;2.92;1.38;;;;;;;0.12;90.14;101419.25;10222819;29;20053;-93
2023/10/25 12:54:43;;;;;;;2.67;1.80;;;;;;;0.10;90.26;101424.00;10230515;28;20051;-95
2023/10/25 12:59:45;;;;;;;3.45;1.80;;;;;;;0.17;89.99;101424.03;10218711;29;20036;-89
2023/10/25 13:04:47;;;;;;;1.80;1.42;;;;;;;0.28;89.12;101418.97;10200493;29;20054;-89
2023/10/25 13:09:50;;;;;;;3.55;1.98;;;;;;;0.40;88.62;101422.00;10241448;29;20049;-92
2023/10/25 13:14:53;;;;;;;4.00;2.40;;;;;;;0.51;88.30;101417.91;10207204;29;20043;-94
2023/10/25 13:19:57;;;;;;;4.43;2.40;;;;;;;0.56;86.62;101426.28;10217841;29;20052;-91
2023/10/25 13:24:59;;;;;;;5.50;3.05;;;;;;;0.64;86.07;101419.88;10216207;29;20429;-95
2023/10/25 13:30:05;;;;;;;4.43;2.45;;;;;;;0.69;84.66;101415.53;10194080;29;20064;-95
2023/10/25 13:35:09;;;;;;;7.13;3.30;;;;;;;0.76;83.87;101408.34;10194372;29;20423;-91
2023/10/25 13:40:11;;;;;;;4.25;2.72;;;;;;;0.75;82.60;101422.88;10196240;29;20232;-87
2023/10/25 13:45:13;;;;;;;7.93;2.80;;;;;;;0.60;80.21;101424.84;10229079;29;20047;-91
2023/10/25 13:50:18;;;;;;;3.85;2.40;;;;;;;0.50;75.59;101419.75;10195177;29;20102;-88
2023/10/25 13:55:20;;;;;;;3.35;2.13;;;;;;;0.46;75.11;101425.75;10225321;29;20458;-88
2023/10/25 14:00:26;;;;;;;3.45;2.10;;;;;;;0.48;74.72;101421.84;10216666;29;20419;-93
2023/10/25 14:05:28;;;;;;;6.88;2.25;;;;;;;0.35;74.94;101428.97;10192558;29;20063;-91
2023/10/25 14:10:30;;;;;;;3.28;2.33;;;;;;;0.22;75.47;101422.47;10191122;29;20523;-92
2023/10/25 14:15:36;;;;;;;2.58;1.50;;;;;;;0.10;75.90;101413.19;10229195;29;20425;-90
2023/10/25 14:20:39;;;;;;;3.35;1.98;;;;;;;0.06;76.57;101409.22;10207182;29;20051;-89
2023/10/25 14:25:48;;;;;;;2.90;2.20;;;;;;;-0.03;74.80;101413.06;10237420;29;20039;-89
2023/10/25 14:31:02;;;;;;;3.05;1.50;;;;;;;-0.10;74.22;101417.56;10216430;28;20052;-92
2023/10/25 14:36:13;;;;;;;4.15;1.77;;;;;;;-0.16;74.21;101410.25;10190614;29;20045;-88
2023/10/25 14:41:16;;;;;;;2.40;2.00;;;;;;;-0.27;75.35;101408.91;10231060;29;20044;-90
2023/10/25 14:46:20;;;;;;;1.45;1.35;;;;;;;-0.27;74.77;101399.97;10194976;29;20048;-87
2023/10/25 14:51:26;;;;;;;3.33;2.35;;;;;;;-0.29;75.51;101413.66;10203214;29;20055;-87
2023/10/25 14:56:28;;;;;;;4.88;2.15;;;;;;;-0.31;76.01;101410.31;10222091;29;20052;-86
2023/10/25 15:01:31;;;;;;;4.88;2.05;;;;;;;-0.34;76.19;101405.31;10212602;29;20031;-85
2023/10/25 15:06:34;;;;;;;2.95;1.58;;;;;;;-0.38;75.66;101409.38;10222718;29;20047;-85
2023/10/25 15:11:36;;;;;;;3.50;2.00;;;;;;;-0.42;74.60;101408.94;10206896;29;20070;-85
2023/10/25 15:16:39;;;;;;;6.65;2.42;;;;;;;-0.45;74.40;101419.28;10224993;29;20417;-85
2023/10/25 15:21:41;;;;;;;3.20;2.00;;;;;;;-0.48;74.28;101412.41;10240826;29;20039;-84
2023/10/25 15:26:43;;;;;;;4.07;2.17;;;;;;;-0.52;74.41;101408.41;10196584;29;20044;-85
2023/10/25 15:31:45;;;;;;;3.83;2.00;;;;;;;-0.53;74.86;101422.91;10232152;29;20048;-85
2023/10/25 15:36:48;;;;;;;4.88;1.70;;;;;;;-0.54;74.13;101415.00;10206183;29;20046;-86
2023/10/25 15:41:50;;;;;;;4.65;2.13;;;;;;;-0.52;74.30;101419.19;10210490;29;20048;-85
2023/10/25 15:46:52;;;;;;;3.65;2.13;;;;;;;-0.42;73.82;101417.03;10218652;29;20150;-89
2023/10/25 15:51:55;;;;;;;6.85;2.05;;;;;;;-0.33;73.13;101418.59;10220504;29;20084;-85
2023/10/25 15:56:59;;;;;;;5.22;2.08;;;;;;;-0.28;72.59;101414.47;10220677;29;20036;-86
2023/10/25 16:02:01;;;;;;;3.65;1.75;;;;;;;-0.26;71.72;101407.88;10226477;29;20044;-94
2023/10/25 16:07:03;;;;;;;3.67;2.20;;;;;;;-0.26;72.29;101412.44;10208950;29;20035;-88
2023/10/25 16:12:06;;;;;;;3.08;1.65;;;;;;;-0.25;71.18;101409.53;10232723;29;20052;-87
2023/10/25 16:17:08;;;;;;;3.42;2.08;;;;;;;-0.20;70.65;101417.88;10199268;29;20503;-86
2023/10/25 16:22:16;;;;;;;3.90;1.40;;;;;;;-0.24;68.71;101405.81;10219214;29;20426;-88
2023/10/25 16:27:21;;;;;;;3.78;1.50;;;;;;;-0.26;68.82;101413.25;10216247;29;20040;-88
2023/10/25 16:32:23;;;;;;;4.18;1.60;;;;;;;-0.27;69.24;101413.44;10229351;29;20053;-86
2023/10/25 16:37:26;;;;;;;3.58;1.77;;;;;;;-0.31;69.51;101431.88;10219137;29;20119;-87
2023/10/25 16:42:28;;;;;;;3.05;1.40;;;;;;;-0.41;69.81;101409.78;10210453;29;20052;-87
2023/10/25 16:47:30;;;;;;;4.35;1.60;;;;;;;-0.48;70.73;101419.66;10212773;29;20051;-84
2023/10/25 16:52:34;;;;;;;8.15;1.70;;;;;;;-0.53;70.65;101412.13;10226505;29;20099;-89
2023/10/25 16:57:36;;;;;;;7.45;2.03;;;;;;;-0.49;70.11;101416.13;10196565;29;20040;-85
2023/10/25 17:02:38;;;;;;;3.63;1.98;;;;;;;-0.46;69.51;101417.59;10239113;29;20040;-84
2023/10/25 17:07:40;;;;;;;4.90;1.92;;;;;;;-0.44;69.08;101419.06;10245685;29;20047;-83
2023/10/25 17:12:42;;;;;;;3.42;1.90;;;;;;;-0.45;69.81;101424.66;10246246;29;20062;-85
2023/10/25 17:17:45;;;;;;;3.88;2.05;;;;;;;-0.48;69.75;101411.56;10227015;29;20043;-80
2023/10/25 17:22:47;;;;;;;4.63;2.63;;;;;;;-0.59;69.34;101417.44;10229438;29;20506;-83
2023/10/25 17:27:52;;;;;;;5.53;2.53;;;;;;;-0.59;69.63;101420.13;10245544;29;20047;-82
2023/10/25 17:32:55;;;;;;;3.85;2.50;;;;;;;-0.71;69.88;101409.00;10225238;29;20052;-84
2023/10/25 17:37:57;;;;;;;4.72;2.70;;;;;;;-0.82;70.37;101401.41;10244657;29;20040;-83
2023/10/25 17:43:09;;;;;;;;;;;;;;;;;;;;;
2023/10/25 17:48:14;;;;;;;5.68;2.60;;;;;;;-0.88;70.29;101404.84;10244662;29;20051;-86
2023/10/25 17:53:17;;;;;;;2.47;2.03;;;;;;;-1.00;70.66;101402.63;10245737;29;20055;-83
2023/10/25 17:58:19;;;;;;;5.70;1.70;;;;;;;-1.02;70.21;101406.53;10199696;29;20047;-87
2023/10/25 18:04:00;;;;;;;3.50;2.03;;;;;;;-1.13;70.28;101407.81;10225854;29;20056;-87
2023/10/25 18:09:02;;;;;;;5.03;2.35;;;;;;;-1.20;70.70;101409.59;10220802;29;20047;-86
2023/10/25 18:14:07;;;;;;;6.40;2.47;;;;;;;-1.32;70.74;101405.69;10220695;29;20039;-81
2023/10/25 18:19:10;;;;;;;5.90;2.40;;;;;;;-1.45;71.58;101410.88;10238610;29;20044;-81
2023/10/25 18:24:12;;;;;;;4.70;2.30;;;;;;;-1.44;71.36;101407.97;10223457;29;20528;-82
2023/10/25 18:29:14;;;;;;;4.82;2.42;;;;;;;-1.48;71.08;101412.06;10242419;29;20426;-82
2023/10/25 18:34:22;;;;;;;3.47;2.13;;;;;;;-1.55;71.20;101411.97;10243024;29;20046;-84
2023/10/25 18:39:26;;;;;;;5.00;2.38;;;;;;;-1.57;70.51;101397.84;10243487;29;20399;-85
2023/10/25 18:44:33;;;;;;;6.63;3.10;;;;;;;-1.65;70.56;101400.63;10240349;29;20118;-85
2023/10/25 18:49:36;;;;;;;7.50;3.13;;;;;;;-1.70;70.80;101397.66;10233930;29;20509;-86
2023/10/25 18:54:41;;;;;;;6.20;2.10;;;;;;;-1.79;71.05;101406.78;10211557;29;20059;-90
2023/10/25 18:59:43;;;;;;;5.28;2.83;;;;;;;-1.86;71.17;101397.78;10172991;29;20043;-94
2023/10/25 19:04:47;;;;;;;3.53;2.45;;;;;;;-1.92;71.81;101401.19;10199169;29;20050;-87
2023/10/25 19:09:50;;;;;;;5.35;1.40;;;;;;;-1.91;71.47;101395.66;10247911;29;20044;-86
2023/10/25 19:14:52;;;;;;;5.18;2.38;;;;;;;-1.97;71.07;101404.44;10263340;29;20039;-94
2023/10/25 19:19:54;;;;;;;5.50;2.28;;;;;;;-2.06;71.37;101415.44;10218805;29;20055;-92
2023/10/25 19:24:57;;;;;;;5.13;2.33;;;;;;;-2.06;71.21;101412.75;10237918;29;20078;-87
2023/10/25 19:30:00;;;;;;;6.97;2.50;;;;;;;-2.04;71.63;101410.72;10253550;29;20051;-89
2023/10/25 19:35:03;;;;;;;5.75;2.38;;;;;;;-2.09;71.74;101415.78;10178807;29;20043;-86
2023/10/25 19:40:06;;;;;;;5.38;2.58;;;;;;;-2.19;71.84;101406.13;10225329;29;20170;-86
2023/10/25 19:45:09;;;;;;;5.80;2.78;;;;;;;-2.23;71.66;101404.81;10212697;29;20067;-88
2023/10/25 19:50:13;;;;;;;7.25;2.60;;;;;;;-2.29;71.50;101394.75;10226093;29;20510;-88
2023/10/25 19:55:18;;;;;;;5.47;2.75;;;;;;;-2.31;72.25;101394.09;10253087;29;20535;-93
2023/10/25 20:00:21;;;;;;;4.78;2.58;;;;;;;-2.30;71.87;101390.38;10199662;29;20047;-89
2023/10/25 20:05:23;;;;;;;2.42;1.98;;;;;;;-2.32;72.01;101394.28;10209705;29;20051;-90
2023/10/25 20:10:25;;;;;;;5.35;2.55;;;;;;;-2.37;71.46;101404.72;10208802;29;20054;-92
2023/10/25 20:15:29;;;;;;;4.95;2.60;;;;;;;-2.39;71.89;101402.22;10200604;29;20049;-90
2023/10/25 20:20:31;;;;;;;5.50;2.40;;;;;;;-2.43;72.11;101395.50;10230950;29;20507;-89
2023/10/25 20:25:33;;;;;;;4.57;2.53;;;;;;;-2.51;72.72;101399.09;10234758;29;20490;-89
2023/10/25 20:30:57;;;;;;;5.00;2.42;;;;;;;-2.50;72.10;101394.56;10199563;29;20052;-90
2023/10/25 20:36:03;;;;;;;3.70;2.67;;;;;;;-2.55;72.66;101410.38;10221375;29;20036;-90
2023/10/25 20:41:06;;;;;;;6.03;2.80;;;;;;;-2.62;72.54;101406.72;10214446;29;20046;-91
2023/10/25 20:46:09;;;;;;;4.97;2.72;;;;;;;-2.64;73.02;101403.38;10202076;29;20061;-91
2023/10/25 20:51:11;;;;;;;5.55;2.45;;;;;;;-2.64;72.76;101400.69;10213621;29;20071;-91
2023/10/25 20:56:14;;;;;;;6.53;3.38;;;;;;;-2.68;72.85;101397.50;10233646;29;20043;-91
2023/10/25 21:01:17;;;;;;;6.32;2.72;;;;;;;-2.74;72.95;101392.84;10215836;29;20043;-92
2023/10/25 21:06:20;;;;;;;4.82;2.78;;;;;;;-2.68;73.12;101389.44;10210665;29;20107;-92
2023/10/25 21:11:23;;;;;;;7.05;3.03;;;;;;;-2.52;72.20;101381.31;10215133;29;20516;-89
2023/10/25 21:16:29;;;;;;;6.30;3.03;;;;;;;-2.68;72.55;101396.69;10223527;29;20046;-89
2023/10/25 21:21:32;;;;;;;4.88;2.47;;;;;;;-2.75;72.88;101385.81;10215863;29;20127;-86
2023/10/25 21:26:35;;;;;;;5.07;2.92;;;;;;;-2.75;73.02;101401.94;10211918;29;20050;-87
2023/10/25 21:31:38;;;;;;;5.85;2.58;;;;;;;-2.65;72.37;101380.19;10215952;29;20467;-88
2023/10/25 21:36:42;;;;;;;4.60;2.63;;;;;;;-2.73;72.41;101389.16;10220350;29;20529;-94
2023/10/25 21:41:52;;;;;;;6.47;2.72;;;;;;;-2.71;72.45;101386.28;10216932;29;20042;-93
2023/10/25 21:46:54;;;;;;;3.40;2.05;;;;;;;-2.65;72.09;101383.72;10234533;29;20494;-93
2023/10/25 21:51:58;;;;;;;5.47;2.38;;;;;;;-2.61;72.06;101386.88;10205176;29;20080;-93
2023/10/25 21:57:00;;;;;;;5.57;2.13;;;;;;;-2.56;72.03;101376.47;10228177;29;20054;-92
2023/10/25 22:02:03;;;;;;;4.55;2.40;;;;;;;-2.57;71.42;101382.84;10235284;29;20050;-94
2023/10/25 22:07:11;;;;;;;5.55;2.38;;;;;;;-2.64;71.25;101363.06;10217044;29;20047;-93
2023/10/25 22:12:14;;;;;;;2.20;1.85;;;;;;;-2.60;71.44;101367.09;10204035;29;20517;-92
2023/10/25 22:17:42;;;;;;;4.88;1.40;;;;;;;-2.58;71.32;101359.69;10229238;29;20055;-94
2023/10/25 22:22:54;;;;;;;3.20;1.60;;;;;;;-2.60;70.56;101354.50;10251658;29;20118;-92
2023/10/25 22:28:26;;;;;;;1.88;1.40;;;;;;;-2.56;70.75;101363.03;10226312;29;20549;-90
2023/10/25 22:33:29;;;;;;;2.95;1.65;;;;;;;-2.50;69.79;101347.03;10203593;29;20044;-89
2023/10/25 22:38:32;;;;;;;3.58;1.50;;;;;;;-2.53;70.19;101352.75;10188364;29;20040;-87
2023/10/25 22:43:34;;;;;;;2.03;1.23;;;;;;;-2.55;70.26;101343.22;10242857;29;20047;-85
2023/10/25 22:48:36;;;;;;;2.55;1.38;;;;;;;-2.48;69.61;101341.47;10227393;29;20039;-86
2023/10/25 22:53:39;;;;;;;2.55;1.10;;;;;;;-2.57;69.74;101343.38;10240293;29;20055;-86
2023/10/25 22:58:42;;;;;;;2.95;1.10;;;;;;;-2.55;70.01;101335.16;10243203;29;20043;-86
2023/10/25 23:03:45;;;;;;;3.25;1.42;;;;;;;-2.52;69.82;101334.78;10242046;29;20084;-85
2023/10/25 23:08:47;;;;;;;3.25;1.00;;;;;;;-2.50;69.74;101330.91;10242715;29;20043;-86
2023/10/25 23:13:51;;;;;;;2.83;1.50;;;;;;;-2.49;69.82;101331.75;10222927;29;20055;-86
2023/10/25 23:18:57;;;;;;;2.38;1.38;;;;;;;-2.26;69.34;101327.19;10224853;29;20044;-86
2023/10/25 23:23:59;;;;;;;2.50;1.55;;;;;;;-2.40;69.94;101328.00;10240054;29;20453;-84
2023/10/25 23:29:02;;;;;;;4.95;2.00;;;;;;;-2.46;69.91;101326.00;10224223;29;20062;-85
2023/10/25 23:34:04;;;;;;;3.97;1.50;;;;;;;-2.52;70.95;101321.34;10244389;29;20039;-86
2023/10/25 23:39:07;;;;;;;2.58;1.60;;;;;;;-2.51;71.43;101315.78;10250863;29;20067;-86